sensor_id;sensor_type;location;lat;lon;timestamp;temperature;humidity
21246;DHT22;10781;50.928;4.440;2023-05-29T00:01:44;15.50;99.90
21246;DHT22;10781;50.928;4.440;2023-05-29T00:04:09;15.40;99.90
21246;DHT22;10781;50.928;4.440;2023-05-29T00:06:37;15.50;99.90
21246;DHT22;10781;50.928;4.440;2023-05-29T00:09:03;15.40;99.90
21246;DHT22;10781;50.928;4.440;2023-05-29T00:11:29;15.40;99.90
21246;DHT22;10781;50.928;4.440;2023-05-29T00:13:55;15.30;99.90
21246;DHT22;10781;50.928;4.440;2023-05-29T00:16:22;15.10;99.90
21246;DHT22;10781;50.928;4.440;2023-05-29T00:18:49;15.10;99.90
21246;DHT22;10781;50.928;4.440;2023-05-29T00:21:15;15.10;99.90
21246;DHT22;10781;50.928;4.440;2023-05-29T00:23:41;15.10;99.90
21246;DHT22;10781;50.928;4.440;2023-05-29T00:26:07;15.20;99.90
21246;DHT22;10781;50.928;4.440;2023-05-29T00:28:33;15.10;99.90
21246;DHT22;10781;50.928;4.440;2023-05-29T00:30:59;14.90;99.90
21246;DHT22;10781;50.928;4.440;2023-05-29T00:33:26;14.90;99.90
21246;DHT22;10781;50.928;4.440;2023-05-29T00:35:52;14.90;99.90
21246;DHT22;10781;50.928;4.440;2023-05-29T00:38:17;14.90;99.90
21246;DHT22;10781;50.928;4.440;2023-05-29T00:40:43;14.80;99.90
21246;DHT22;10781;50.928;4.440;2023-05-29T00:43:08;14.70;99.90
21246;DHT22;10781;50.928;4.440;2023-05-29T00:45:34;14.60;99.90
21246;DHT22;10781;50.928;4.440;2023-05-29T00:48:03;14.60;99.90
21246;DHT22;10781;50.928;4.440;2023-05-29T00:50:30;14.50;99.90
21246;DHT22;10781;50.928;4.440;2023-05-29T00:52:56;14.40;99.90
21246;DHT22;10781;50.928;4.440;2023-05-29T00:55:23;14.40;99.90
21246;DHT22;10781;50.928;4.440;2023-05-29T00:57:49;14.40;99.90
21246;DHT22;10781;50.928;4.440;2023-05-29T01:00:15;14.40;99.90
21246;DHT22;10781;50.928;4.440;2023-05-29T01:02:42;14.30;99.90
21246;DHT22;10781;50.928;4.440;2023-05-29T01:05:13;14.30;99.90
21246;DHT22;10781;50.928;4.440;2023-05-29T01:07:43;14.20;99.90
21246;DHT22;10781;50.928;4.440;2023-05-29T01:10:09;14.20;99.90
21246;DHT22;10781;50.928;4.440;2023-05-29T01:12:38;14.00;99.90
21246;DHT22;10781;50.928;4.440;2023-05-29T01:18:08;14.00;99.90
21246;DHT22;10781;50.928;4.440;2023-05-29T01:21:06;13.90;99.90
21246;DHT22;10781;50.928;4.440;2023-05-29T01:23:47;13.90;99.90
21246;DHT22;10781;50.928;4.440;2023-05-29T01:26:21;13.90;99.90
21246;DHT22;10781;50.928;4.440;2023-05-29T01:28:52;13.90;99.90
21246;DHT22;10781;50.928;4.440;2023-05-29T01:31:23;13.90;99.90
21246;DHT22;10781;50.928;4.440;2023-05-29T01:33:56;13.90;99.90
21246;DHT22;10781;50.928;4.440;2023-05-29T01:36:23;14.00;99.90
21246;DHT22;10781;50.928;4.440;2023-05-29T01:38:50;13.90;99.90
21246;DHT22;10781;50.928;4.440;2023-05-29T01:41:17;13.80;99.90
21246;DHT22;10781;50.928;4.440;2023-05-29T01:43:44;13.70;99.90
21246;DHT22;10781;50.928;4.440;2023-05-29T01:46:12;13.70;99.90
21246;DHT22;10781;50.928;4.440;2023-05-29T01:48:38;13.70;99.90
21246;DHT22;10781;50.928;4.440;2023-05-29T01:51:04;13.70;99.90
21246;DHT22;10781;50.928;4.440;2023-05-29T01:53:29;13.70;99.90
21246;DHT22;10781;50.928;4.440;2023-05-29T01:55:55;13.80;99.90
21246;DHT22;10781;50.928;4.440;2023-05-29T01:58:21;13.80;99.90
21246;DHT22;10781;50.928;4.440;2023-05-29T02:00:48;13.80;99.90
21246;DHT22;10781;50.928;4.440;2023-05-29T02:03:14;13.90;99.90
21246;DHT22;10781;50.928;4.440;2023-05-29T02:05:40;13.80;99.90
21246;DHT22;10781;50.928;4.440;2023-05-29T02:08:05;13.80;99.90
21246;DHT22;10781;50.928;4.440;2023-05-29T02:10:31;13.80;99.90
21246;DHT22;10781;50.928;4.440;2023-05-29T02:12:57;13.80;99.90
21246;DHT22;10781;50.928;4.440;2023-05-29T02:15:23;13.70;99.90
21246;DHT22;10781;50.928;4.440;2023-05-29T02:17:49;13.70;99.90
21246;DHT22;10781;50.928;4.440;2023-05-29T02:20:15;13.60;99.90
21246;DHT22;10781;50.928;4.440;2023-05-29T02:22:41;13.70;99.90
21246;DHT22;10781;50.928;4.440;2023-05-29T02:25:07;13.60;99.90
21246;DHT22;10781;50.928;4.440;2023-05-29T02:27:33;13.50;99.90
21246;DHT22;10781;50.928;4.440;2023-05-29T02:29:58;13.40;99.90
21246;DHT22;10781;50.928;4.440;2023-05-29T02:32:24;13.40;99.90
21246;DHT22;10781;50.928;4.440;2023-05-29T02:34:51;13.40;99.90
21246;DHT22;10781;50.928;4.440;2023-05-29T02:37:17;13.40;99.90
21246;DHT22;10781;50.928;4.440;2023-05-29T02:39:43;13.30;99.90
21246;DHT22;10781;50.928;4.440;2023-05-29T02:42:09;13.20;99.90
21246;DHT22;10781;50.928;4.440;2023-05-29T02:44:35;13.10;99.90
21246;DHT22;10781;50.928;4.440;2023-05-29T02:47:00;13.10;99.90
21246;DHT22;10781;50.928;4.440;2023-05-29T02:49:26;12.90;99.90
21246;DHT22;10781;50.928;4.440;2023-05-29T02:51:52;12.90;99.90
21246;DHT22;10781;50.928;4.440;2023-05-29T02:54:25;12.90;99.90
21246;DHT22;10781;50.928;4.440;2023-05-29T02:56:53;12.90;99.90
21246;DHT22;10781;50.928;4.440;2023-05-29T02:59:19;12.80;99.90
21246;DHT22;10781;50.928;4.440;2023-05-29T03:01:45;12.70;99.90
21246;DHT22;10781;50.928;4.440;2023-05-29T03:04:12;12.70;99.90
21246;DHT22;10781;50.928;4.440;2023-05-29T03:06:38;12.60;99.90
21246;DHT22;10781;50.928;4.440;2023-05-29T03:09:04;12.60;99.90
21246;DHT22;10781;50.928;4.440;2023-05-29T03:11:33;12.70;99.90
21246;DHT22;10781;50.928;4.440;2023-05-29T03:14:01;12.60;99.90
21246;DHT22;10781;50.928;4.440;2023-05-29T03:16:26;12.80;99.90
21246;DHT22;10781;50.928;4.440;2023-05-29T03:18:55;12.80;99.90
21246;DHT22;10781;50.928;4.440;2023-05-29T03:21:20;12.60;99.90
21246;DHT22;10781;50.928;4.440;2023-05-29T03:23:46;12.60;99.90
21246;DHT22;10781;50.928;4.440;2023-05-29T03:26:12;12.60;99.90
21246;DHT22;10781;50.928;4.440;2023-05-29T03:28:39;12.60;99.90
21246;DHT22;10781;50.928;4.440;2023-05-29T03:31:05;12.50;99.90
21246;DHT22;10781;50.928;4.440;2023-05-29T03:33:30;12.50;99.90
21246;DHT22;10781;50.928;4.440;2023-05-29T03:35:56;12.50;99.90
21246;DHT22;10781;50.928;4.440;2023-05-29T03:38:22;12.40;99.90
21246;DHT22;10781;50.928;4.440;2023-05-29T03:40:48;12.40;99.90
21246;DHT22;10781;50.928;4.440;2023-05-29T03:43:14;12.30;99.90
21246;DHT22;10781;50.928;4.440;2023-05-29T03:45:39;12.20;99.90
21246;DHT22;10781;50.928;4.440;2023-05-29T03:48:05;12.20;99.90
21246;DHT22;10781;50.928;4.440;2023-05-29T03:50:31;12.20;99.90
21246;DHT22;10781;50.928;4.440;2023-05-29T03:52:57;12.20;99.90
21246;DHT22;10781;50.928;4.440;2023-05-29T03:55:22;12.30;99.90
21246;DHT22;10781;50.928;4.440;2023-05-29T03:57:48;12.20;99.90
21246;DHT22;10781;50.928;4.440;2023-05-29T04:00:14;12.20;99.90
21246;DHT22;10781;50.928;4.440;2023-05-29T04:02:40;12.20;99.90
21246;DHT22;10781;50.928;4.440;2023-05-29T04:05:07;12.20;99.90
21246;DHT22;10781;50.928;4.440;2023-05-29T04:07:37;12.10;99.90
21246;DHT22;10781;50.928;4.440;2023-05-29T04:10:04;12.20;99.90
21246;DHT22;10781;50.928;4.440;2023-05-29T04:12:31;12.40;99.90
21246;DHT22;10781;50.928;4.440;2023-05-29T04:14:57;12.40;99.90
21246;DHT22;10781;50.928;4.440;2023-05-29T04:17:22;12.20;99.90
21246;DHT22;10781;50.928;4.440;2023-05-29T04:19:48;12.10;99.90
21246;DHT22;10781;50.928;4.440;2023-05-29T04:22:14;12.10;99.90
21246;DHT22;10781;50.928;4.440;2023-05-29T04:24:40;12.10;99.90
21246;DHT22;10781;50.928;4.440;2023-05-29T04:27:07;12.20;99.90
21246;DHT22;10781;50.928;4.440;2023-05-29T04:29:34;12.10;99.90
21246;DHT22;10781;50.928;4.440;2023-05-29T04:32:00;12.10;99.90
21246;DHT22;10781;50.928;4.440;2023-05-29T04:34:29;12.10;99.90
21246;DHT22;10781;50.928;4.440;2023-05-29T04:36:56;12.10;99.90
21246;DHT22;10781;50.928;4.440;2023-05-29T04:39:22;12.10;99.90
21246;DHT22;10781;50.928;4.440;2023-05-29T04:41:48;12.10;99.90
21246;DHT22;10781;50.928;4.440;2023-05-29T04:44:13;12.10;99.90
21246;DHT22;10781;50.928;4.440;2023-05-29T04:46:40;12.20;99.90
21246;DHT22;10781;50.928;4.440;2023-05-29T04:49:05;12.20;99.90
21246;DHT22;10781;50.928;4.440;2023-05-29T04:51:31;12.30;99.90
21246;DHT22;10781;50.928;4.440;2023-05-29T04:53:57;12.30;99.90
21246;DHT22;10781;50.928;4.440;2023-05-29T04:56:22;12.20;99.90
21246;DHT22;10781;50.928;4.440;2023-05-29T04:58:48;12.20;99.90
21246;DHT22;10781;50.928;4.440;2023-05-29T05:01:14;12.30;99.90
21246;DHT22;10781;50.928;4.440;2023-05-29T05:03:40;12.30;99.90
21246;DHT22;10781;50.928;4.440;2023-05-29T05:06:06;12.40;99.90
21246;DHT22;10781;50.928;4.440;2023-05-29T05:08:33;12.40;99.90
21246;DHT22;10781;50.928;4.440;2023-05-29T05:11:00;12.50;99.90
21246;DHT22;10781;50.928;4.440;2023-05-29T05:13:26;12.50;99.90
21246;DHT22;10781;50.928;4.440;2023-05-29T05:15:52;12.50;99.90
21246;DHT22;10781;50.928;4.440;2023-05-29T05:18:18;12.50;99.90
21246;DHT22;10781;50.928;4.440;2023-05-29T05:20:44;12.50;99.90
21246;DHT22;10781;50.928;4.440;2023-05-29T05:23:10;12.60;99.90
21246;DHT22;10781;50.928;4.440;2023-05-29T05:25:37;12.60;99.90
21246;DHT22;10781;50.928;4.440;2023-05-29T05:28:04;12.60;99.90
21246;DHT22;10781;50.928;4.440;2023-05-29T05:30:30;12.50;99.90
21246;DHT22;10781;50.928;4.440;2023-05-29T05:32:56;12.60;99.90
21246;DHT22;10781;50.928;4.440;2023-05-29T05:35:22;12.60;99.90
21246;DHT22;10781;50.928;4.440;2023-05-29T05:37:48;12.60;99.90
21246;DHT22;10781;50.928;4.440;2023-05-29T05:40:13;12.50;99.90
21246;DHT22;10781;50.928;4.440;2023-05-29T05:42:39;12.60;99.90
21246;DHT22;10781;50.928;4.440;2023-05-29T05:45:05;12.60;99.90
21246;DHT22;10781;50.928;4.440;2023-05-29T05:47:32;12.70;99.90
21246;DHT22;10781;50.928;4.440;2023-05-29T05:49:58;12.80;99.90
21246;DHT22;10781;50.928;4.440;2023-05-29T05:52:24;13.00;99.90
21246;DHT22;10781;50.928;4.440;2023-05-29T05:54:51;13.00;99.90
21246;DHT22;10781;50.928;4.440;2023-05-29T05:57:17;13.10;99.90
21246;DHT22;10781;50.928;4.440;2023-05-29T05:59:43;13.10;99.90
21246;DHT22;10781;50.928;4.440;2023-05-29T06:02:08;13.20;99.90
21246;DHT22;10781;50.928;4.440;2023-05-29T06:04:34;13.30;99.90
21246;DHT22;10781;50.928;4.440;2023-05-29T06:07:00;13.30;99.90
21246;DHT22;10781;50.928;4.440;2023-05-29T06:09:25;13.40;99.90
21246;DHT22;10781;50.928;4.440;2023-05-29T06:11:51;13.50;99.90
21246;DHT22;10781;50.928;4.440;2023-05-29T06:14:17;13.60;99.90
21246;DHT22;10781;50.928;4.440;2023-05-29T06:16:43;13.60;99.90
21246;DHT22;10781;50.928;4.440;2023-05-29T06:19:09;13.60;99.90
21246;DHT22;10781;50.928;4.440;2023-05-29T06:21:35;13.70;99.90
21246;DHT22;10781;50.928;4.440;2023-05-29T06:24:01;13.80;99.90
21246;DHT22;10781;50.928;4.440;2023-05-29T06:26:27;13.70;99.90
21246;DHT22;10781;50.928;4.440;2023-05-29T06:28:53;13.80;99.90
21246;DHT22;10781;50.928;4.440;2023-05-29T06:31:19;13.70;99.90
21246;DHT22;10781;50.928;4.440;2023-05-29T06:33:45;13.80;99.90
21246;DHT22;10781;50.928;4.440;2023-05-29T06:36:10;13.90;99.90
21246;DHT22;10781;50.928;4.440;2023-05-29T06:38:37;14.00;99.90
21246;DHT22;10781;50.928;4.440;2023-05-29T06:41:03;14.00;99.90
21246;DHT22;10781;50.928;4.440;2023-05-29T06:43:28;14.00;99.90
21246;DHT22;10781;50.928;4.440;2023-05-29T06:45:54;14.10;99.90
21246;DHT22;10781;50.928;4.440;2023-05-29T06:48:20;14.20;99.90
21246;DHT22;10781;50.928;4.440;2023-05-29T06:50:47;14.40;99.90
21246;DHT22;10781;50.928;4.440;2023-05-29T06:53:13;14.50;99.90
21246;DHT22;10781;50.928;4.440;2023-05-29T06:55:39;14.60;99.90
21246;DHT22;10781;50.928;4.440;2023-05-29T06:58:08;14.80;99.90
21246;DHT22;10781;50.928;4.440;2023-05-29T07:00:34;15.00;99.90
21246;DHT22;10781;50.928;4.440;2023-05-29T07:02:59;15.00;99.90
21246;DHT22;10781;50.928;4.440;2023-05-29T07:05:26;15.10;99.90
21246;DHT22;10781;50.928;4.440;2023-05-29T07:07:52;15.30;99.90
21246;DHT22;10781;50.928;4.440;2023-05-29T07:10:18;15.50;99.90
21246;DHT22;10781;50.928;4.440;2023-05-29T07:12:43;15.70;99.90
21246;DHT22;10781;50.928;4.440;2023-05-29T07:15:09;15.70;99.90
21246;DHT22;10781;50.928;4.440;2023-05-29T07:17:35;16.00;99.90
21246;DHT22;10781;50.928;4.440;2023-05-29T07:20:01;17.20;99.90
21246;DHT22;10781;50.928;4.440;2023-05-29T07:22:26;18.70;99.90
21246;DHT22;10781;50.928;4.440;2023-05-29T07:24:52;19.60;99.90
21246;DHT22;10781;50.928;4.440;2023-05-29T07:27:17;20.10;99.90
21246;DHT22;10781;50.928;4.440;2023-05-29T07:29:43;20.60;99.90
21246;DHT22;10781;50.928;4.440;2023-05-29T07:32:09;20.40;99.90
21246;DHT22;10781;50.928;4.440;2023-05-29T07:34:35;20.30;99.90
21246;DHT22;10781;50.928;4.440;2023-05-29T07:37:03;20.50;99.90
21246;DHT22;10781;50.928;4.440;2023-05-29T07:39:30;20.80;99.90
21246;DHT22;10781;50.928;4.440;2023-05-29T07:41:55;20.70;99.90
21246;DHT22;10781;50.928;4.440;2023-05-29T07:44:21;20.80;99.90
21246;DHT22;10781;50.928;4.440;2023-05-29T07:46:47;20.90;99.90
21246;DHT22;10781;50.928;4.440;2023-05-29T07:49:13;20.80;99.90
21246;DHT22;10781;50.928;4.440;2023-05-29T07:51:39;20.90;99.90
21246;DHT22;10781;50.928;4.440;2023-05-29T07:54:05;20.80;99.90
21246;DHT22;10781;50.928;4.440;2023-05-29T07:56:31;21.50;99.90
21246;DHT22;10781;50.928;4.440;2023-05-29T07:58:59;21.90;99.90
21246;DHT22;10781;50.928;4.440;2023-05-29T08:01:25;21.30;99.90
21246;DHT22;10781;50.928;4.440;2023-05-29T08:03:51;21.30;99.90
21246;DHT22;10781;50.928;4.440;2023-05-29T08:06:17;21.50;99.90
21246;DHT22;10781;50.928;4.440;2023-05-29T08:08:44;21.80;99.90
21246;DHT22;10781;50.928;4.440;2023-05-29T08:11:10;21.70;99.90
21246;DHT22;10781;50.928;4.440;2023-05-29T08:13:36;22.70;99.90
21246;DHT22;10781;50.928;4.440;2023-05-29T08:16:02;22.20;99.90
21246;DHT22;10781;50.928;4.440;2023-05-29T08:18:30;22.30;99.90
21246;DHT22;10781;50.928;4.440;2023-05-29T08:20:56;22.10;99.90
21246;DHT22;10781;50.928;4.440;2023-05-29T08:23:22;22.80;99.90
21246;DHT22;10781;50.928;4.440;2023-05-29T08:25:48;23.10;99.90
21246;DHT22;10781;50.928;4.440;2023-05-29T08:28:15;23.80;99.90
21246;DHT22;10781;50.928;4.440;2023-05-29T08:30:41;24.80;99.90
21246;DHT22;10781;50.928;4.440;2023-05-29T08:33:06;24.80;99.90
21246;DHT22;10781;50.928;4.440;2023-05-29T08:35:32;24.20;99.90
21246;DHT22;10781;50.928;4.440;2023-05-29T08:37:58;24.10;99.90
21246;DHT22;10781;50.928;4.440;2023-05-29T08:40:24;24.10;99.50
21246;DHT22;10781;50.928;4.440;2023-05-29T08:43:31;24.00;99.00
21246;DHT22;10781;50.928;4.440;2023-05-29T08:45:59;24.90;98.30
21246;DHT22;10781;50.928;4.440;2023-05-29T08:48:27;25.20;97.20
21246;DHT22;10781;50.928;4.440;2023-05-29T08:50:55;25.50;95.90
21246;DHT22;10781;50.928;4.440;2023-05-29T08:53:22;25.00;95.50
21246;DHT22;10781;50.928;4.440;2023-05-29T08:55:48;24.90;95.30
21246;DHT22;10781;50.928;4.440;2023-05-29T08:58:17;24.20;95.90
21246;DHT22;10781;50.928;4.440;2023-05-29T09:00:47;24.30;96.80
21246;DHT22;10781;50.928;4.440;2023-05-29T09:03:13;24.00;95.90
21246;DHT22;10781;50.928;4.440;2023-05-29T09:05:39;23.60;96.80
21246;DHT22;10781;50.928;4.440;2023-05-29T09:08:09;24.10;97.30
21246;DHT22;10781;50.928;4.440;2023-05-29T09:10:38;24.00;96.80
21246;DHT22;10781;50.928;4.440;2023-05-29T09:13:05;23.70;97.20
21246;DHT22;10781;50.928;4.440;2023-05-29T09:15:31;23.30;97.10
21246;DHT22;10781;50.928;4.440;2023-05-29T09:17:57;22.60;97.40
21246;DHT22;10781;50.928;4.440;2023-05-29T09:20:25;23.20;98.00
21246;DHT22;10781;50.928;4.440;2023-05-29T09:22:59;24.70;96.50
21246;DHT22;10781;50.928;4.440;2023-05-29T09:25:27;24.00;95.50
21246;DHT22;10781;50.928;4.440;2023-05-29T09:27:57;24.50;95.40
21246;DHT22;10781;50.928;4.440;2023-05-29T09:30:36;24.40;95.00
21246;DHT22;10781;50.928;4.440;2023-05-29T09:33:03;23.80;94.70
21246;DHT22;10781;50.928;4.440;2023-05-29T09:35:41;23.50;95.00
21246;DHT22;10781;50.928;4.440;2023-05-29T09:38:08;24.50;94.30
21246;DHT22;10781;50.928;4.440;2023-05-29T09:40:36;24.90;93.80
21246;DHT22;10781;50.928;4.440;2023-05-29T09:43:09;25.10;93.20
21246;DHT22;10781;50.928;4.440;2023-05-29T09:45:46;25.00;93.50
21246;DHT22;10781;50.928;4.440;2023-05-29T09:48:16;25.10;93.50
21246;DHT22;10781;50.928;4.440;2023-05-29T09:50:43;24.80;93.50
21246;DHT22;10781;50.928;4.440;2023-05-29T09:53:18;25.20;92.40
21246;DHT22;10781;50.928;4.440;2023-05-29T09:55:50;24.60;93.50
21246;DHT22;10781;50.928;4.440;2023-05-29T09:58:23;25.40;92.80
21246;DHT22;10781;50.928;4.440;2023-05-29T10:00:49;25.70;91.60
21246;DHT22;10781;50.928;4.440;2023-05-29T10:03:16;25.60;91.50
21246;DHT22;10781;50.928;4.440;2023-05-29T10:05:47;25.70;91.30
21246;DHT22;10781;50.928;4.440;2023-05-29T10:08:15;25.90;90.90
21246;DHT22;10781;50.928;4.440;2023-05-29T10:10:48;26.00;90.20
21246;DHT22;10781;50.928;4.440;2023-05-29T10:13:15;25.90;89.10
21246;DHT22;10781;50.928;4.440;2023-05-29T10:15:45;26.00;90.00
21246;DHT22;10781;50.928;4.440;2023-05-29T10:21:00;27.30;84.00
21246;DHT22;10781;50.928;4.440;2023-05-29T10:23:28;26.80;86.60
21246;DHT22;10781;50.928;4.440;2023-05-29T10:25:58;26.40;86.60
21246;DHT22;10781;50.928;4.440;2023-05-29T10:28:30;25.90;86.20
21246;DHT22;10781;50.928;4.440;2023-05-29T10:31:03;26.50;86.80
21246;DHT22;10781;50.928;4.440;2023-05-29T10:36:33;26.70;82.70
21246;DHT22;10781;50.928;4.440;2023-05-29T10:39:01;27.50;83.10
21246;DHT22;10781;50.928;4.440;2023-05-29T10:41:30;26.80;80.70
21246;DHT22;10781;50.928;4.440;2023-05-29T10:44:01;26.20;83.50
21246;DHT22;10781;50.928;4.440;2023-05-29T10:49:16;27.40;81.20
21246;DHT22;10781;50.928;4.440;2023-05-29T10:51:42;28.20;80.10
21246;DHT22;10781;50.928;4.440;2023-05-29T10:54:08;27.50;79.30
21246;DHT22;10781;50.928;4.440;2023-05-29T10:56:34;27.40;80.60
21246;DHT22;10781;50.928;4.440;2023-05-29T10:59:00;28.90;77.70
21246;DHT22;10781;50.928;4.440;2023-05-29T11:01:28;29.30;75.60
21246;DHT22;10781;50.928;4.440;2023-05-29T11:06:42;30.60;73.40
21246;DHT22;10781;50.928;4.440;2023-05-29T11:09:43;30.30;71.40
21246;DHT22;10781;50.928;4.440;2023-05-29T11:12:22;30.00;71.50
21246;DHT22;10781;50.928;4.440;2023-05-29T11:15:10;29.60;70.40
21246;DHT22;10781;50.928;4.440;2023-05-29T11:20:48;29.80;71.50
21246;DHT22;10781;50.928;4.440;2023-05-29T11:23:15;29.50;68.80
21246;DHT22;10781;50.928;4.440;2023-05-29T11:25:44;28.80;70.70
21246;DHT22;10781;50.928;4.440;2023-05-29T11:28:11;30.10;70.10
21246;DHT22;10781;50.928;4.440;2023-05-29T11:30:48;28.90;69.00
21246;DHT22;10781;50.928;4.440;2023-05-29T11:33:27;29.40;69.50
21246;DHT22;10781;50.928;4.440;2023-05-29T11:35:57;28.80;70.40
21246;DHT22;10781;50.928;4.440;2023-05-29T11:38:24;29.40;71.90
21246;DHT22;10781;50.928;4.440;2023-05-29T11:40:50;29.30;69.80
21246;DHT22;10781;50.928;4.440;2023-05-29T11:43:16;29.30;69.80
21246;DHT22;10781;50.928;4.440;2023-05-29T11:45:42;30.30;68.50
21246;DHT22;10781;50.928;4.440;2023-05-29T11:48:07;28.90;68.10
21246;DHT22;10781;50.928;4.440;2023-05-29T11:50:33;28.40;69.10
21246;DHT22;10781;50.928;4.440;2023-05-29T11:53:01;28.40;69.30
21246;DHT22;10781;50.928;4.440;2023-05-29T11:55:28;30.10;68.60
21246;DHT22;10781;50.928;4.440;2023-05-29T11:58:01;31.30;65.40
21246;DHT22;10781;50.928;4.440;2023-05-29T12:00:35;31.00;64.60
21246;DHT22;10781;50.928;4.440;2023-05-29T12:03:02;31.10;63.50
21246;DHT22;10781;50.928;4.440;2023-05-29T12:05:32;30.50;64.10
21246;DHT22;10781;50.928;4.440;2023-05-29T12:07:58;29.30;64.80
21246;DHT22;10781;50.928;4.440;2023-05-29T12:10:27;28.40;68.20
21246;DHT22;10781;50.928;4.440;2023-05-29T12:12:57;29.70;67.10
21246;DHT22;10781;50.928;4.440;2023-05-29T12:15:23;29.00;65.20
21246;DHT22;10781;50.928;4.440;2023-05-29T12:17:50;28.40;67.70
21246;DHT22;10781;50.928;4.440;2023-05-29T12:20:16;28.50;68.20
21246;DHT22;10781;50.928;4.440;2023-05-29T12:22:44;29.50;66.50
21246;DHT22;10781;50.928;4.440;2023-05-29T12:25:16;30.70;65.20
21246;DHT22;10781;50.928;4.440;2023-05-29T12:27:43;30.20;64.30
21246;DHT22;10781;50.928;4.440;2023-05-29T12:30:21;29.30;64.90
21246;DHT22;10781;50.928;4.440;2023-05-29T12:32:51;29.40;64.80
21246;DHT22;10781;50.928;4.440;2023-05-29T12:35:18;29.60;65.40
21246;DHT22;10781;50.928;4.440;2023-05-29T12:37:49;29.70;65.60
21246;DHT22;10781;50.928;4.440;2023-05-29T12:40:20;30.70;64.10
21246;DHT22;10781;50.928;4.440;2023-05-29T12:42:48;31.00;62.20
21246;DHT22;10781;50.928;4.440;2023-05-29T12:45:14;29.40;64.50
21246;DHT22;10781;50.928;4.440;2023-05-29T12:47:55;28.50;65.30
21246;DHT22;10781;50.928;4.440;2023-05-29T12:50:28;28.10;66.30
21246;DHT22;10781;50.928;4.440;2023-05-29T12:55:21;28.70;65.10
21246;DHT22;10781;50.928;4.440;2023-05-29T12:57:47;28.40;65.50
21246;DHT22;10781;50.928;4.440;2023-05-29T13:00:13;28.50;66.30
21246;DHT22;10781;50.928;4.440;2023-05-29T13:02:39;28.30;67.30
21246;DHT22;10781;50.928;4.440;2023-05-29T13:05:06;28.60;65.70
21246;DHT22;10781;50.928;4.440;2023-05-29T13:07:35;29.00;67.10
21246;DHT22;10781;50.928;4.440;2023-05-29T13:10:01;29.40;64.70
21246;DHT22;10781;50.928;4.440;2023-05-29T13:12:29;28.70;66.30
21246;DHT22;10781;50.928;4.440;2023-05-29T13:14:55;28.30;65.90
21246;DHT22;10781;50.928;4.440;2023-05-29T13:17:23;28.50;66.00
21246;DHT22;10781;50.928;4.440;2023-05-29T13:19:49;28.00;65.90
21246;DHT22;10781;50.928;4.440;2023-05-29T13:22:14;28.40;67.70
21246;DHT22;10781;50.928;4.440;2023-05-29T13:24:41;28.20;65.80
21246;DHT22;10781;50.928;4.440;2023-05-29T13:27:07;27.60;66.60
21246;DHT22;10781;50.928;4.440;2023-05-29T13:29:33;28.30;66.50
21246;DHT22;10781;50.928;4.440;2023-05-29T13:32:00;28.70;65.70
21246;DHT22;10781;50.928;4.440;2023-05-29T13:34:25;29.50;65.30
21246;DHT22;10781;50.928;4.440;2023-05-29T13:36:56;28.30;67.70
21246;DHT22;10781;50.928;4.440;2023-05-29T13:39:22;28.70;66.50
21246;DHT22;10781;50.928;4.440;2023-05-29T13:41:48;28.90;67.50
21246;DHT22;10781;50.928;4.440;2023-05-29T13:44:14;29.40;65.60
21246;DHT22;10781;50.928;4.440;2023-05-29T13:46:40;28.90;65.20
21246;DHT22;10781;50.928;4.440;2023-05-29T13:49:05;28.80;65.70
21246;DHT22;10781;50.928;4.440;2023-05-29T13:51:33;27.60;67.70
21246;DHT22;10781;50.928;4.440;2023-05-29T13:54:00;27.80;66.10
21246;DHT22;10781;50.928;4.440;2023-05-29T13:56:25;27.60;66.50
21246;DHT22;10781;50.928;4.440;2023-05-29T13:58:52;27.40;67.20
21246;DHT22;10781;50.928;4.440;2023-05-29T14:01:18;27.30;67.60
21246;DHT22;10781;50.928;4.440;2023-05-29T14:03:45;27.40;69.20
21246;DHT22;10781;50.928;4.440;2023-05-29T14:06:11;27.30;67.40
21246;DHT22;10781;50.928;4.440;2023-05-29T14:08:37;27.60;67.10
21246;DHT22;10781;50.928;4.440;2023-05-29T14:11:03;28.10;67.80
21246;DHT22;10781;50.928;4.440;2023-05-29T14:13:29;27.40;66.30
21246;DHT22;10781;50.928;4.440;2023-05-29T14:15:54;26.90;67.90
21246;DHT22;10781;50.928;4.440;2023-05-29T14:18:22;26.50;68.60
21246;DHT22;10781;50.928;4.440;2023-05-29T14:20:48;27.10;68.70
21246;DHT22;10781;50.928;4.440;2023-05-29T14:23:17;27.00;68.90
21246;DHT22;10781;50.928;4.440;2023-05-29T14:25:43;27.20;67.80
21246;DHT22;10781;50.928;4.440;2023-05-29T14:28:08;27.10;67.80
21246;DHT22;10781;50.928;4.440;2023-05-29T14:30:35;27.40;68.60
21246;DHT22;10781;50.928;4.440;2023-05-29T14:33:01;27.10;69.00
21246;DHT22;10781;50.928;4.440;2023-05-29T14:35:26;27.50;68.80
21246;DHT22;10781;50.928;4.440;2023-05-29T14:37:52;27.30;68.40
21246;DHT22;10781;50.928;4.440;2023-05-29T14:40:18;27.30;69.20
21246;DHT22;10781;50.928;4.440;2023-05-29T14:42:43;27.60;67.70
21246;DHT22;10781;50.928;4.440;2023-05-29T14:45:09;27.10;68.60
21246;DHT22;10781;50.928;4.440;2023-05-29T14:47:35;26.30;69.40
21246;DHT22;10781;50.928;4.440;2023-05-29T14:50:01;25.90;70.50
21246;DHT22;10781;50.928;4.440;2023-05-29T14:52:27;26.50;69.80
21246;DHT22;10781;50.928;4.440;2023-05-29T14:54:52;26.40;70.20
21246;DHT22;10781;50.928;4.440;2023-05-29T14:57:18;26.40;70.00
21246;DHT22;10781;50.928;4.440;2023-05-29T14:59:44;26.00;69.90
21246;DHT22;10781;50.928;4.440;2023-05-29T15:02:09;25.60;71.80
21246;DHT22;10781;50.928;4.440;2023-05-29T15:04:35;25.70;70.20
21246;DHT22;10781;50.928;4.440;2023-05-29T15:07:01;25.40;71.30
21246;DHT22;10781;50.928;4.440;2023-05-29T15:09:27;25.30;71.30
21246;DHT22;10781;50.928;4.440;2023-05-29T15:11:53;25.40;70.80
21246;DHT22;10781;50.928;4.440;2023-05-29T15:14:19;24.80;71.20
21246;DHT22;10781;50.928;4.440;2023-05-29T15:16:45;24.70;73.00
21246;DHT22;10781;50.928;4.440;2023-05-29T15:19:11;24.60;72.20
21246;DHT22;10781;50.928;4.440;2023-05-29T15:21:37;24.70;73.10
21246;DHT22;10781;50.928;4.440;2023-05-29T15:24:03;24.50;73.40
21246;DHT22;10781;50.928;4.440;2023-05-29T15:26:28;24.10;73.90
21246;DHT22;10781;50.928;4.440;2023-05-29T15:28:54;23.70;72.80
21246;DHT22;10781;50.928;4.440;2023-05-29T15:31:20;23.90;74.10
21246;DHT22;10781;50.928;4.440;2023-05-29T15:33:48;23.60;74.70
21246;DHT22;10781;50.928;4.440;2023-05-29T15:36:14;23.90;72.30
21246;DHT22;10781;50.928;4.440;2023-05-29T15:38:41;23.80;73.30
21246;DHT22;10781;50.928;4.440;2023-05-29T15:41:07;23.50;73.50
21246;DHT22;10781;50.928;4.440;2023-05-29T15:43:33;23.20;73.00
21246;DHT22;10781;50.928;4.440;2023-05-29T15:45:59;23.20;73.40
21246;DHT22;10781;50.928;4.440;2023-05-29T15:48:25;23.00;73.10
21246;DHT22;10781;50.928;4.440;2023-05-29T15:50:50;22.60;72.20